createdAt,value
2023-03-29T00:01:00.175Z,99148.58
2023-03-29T00:03:31.376Z,99146.39
2023-03-29T00:06:03.006Z,99144.33
2023-03-29T00:08:34.370Z,99147.59
2023-03-29T00:11:02.543Z,99150.75
2023-03-29T00:13:30.841Z,99153.28
2023-03-29T00:15:58.750Z,99154.02
2023-03-29T00:18:29.455Z,99154.13
2023-03-29T00:20:58.250Z,99156.73
2023-03-29T00:23:26.407Z,99161.36
2023-03-29T00:25:54.474Z,99165.04
2023-03-29T00:28:23.609Z,99163.02
2023-03-29T00:30:51.851Z,99167.42
2023-03-29T00:33:20.960Z,99170.59
2023-03-29T00:35:53.631Z,99170.82
2023-03-29T00:38:22.055Z,99167.18
2023-03-29T00:40:50.076Z,99168.44
2023-03-29T00:43:19.246Z,99171.41
2023-03-29T00:45:47.378Z,99171.89
2023-03-29T00:48:22.727Z,99172.77
2023-03-29T00:50:55.040Z,99174.02
2023-03-29T00:53:34.667Z,99181.64
2023-03-29T00:56:06.566Z,99184.90
2023-03-29T00:58:40.500Z,99191.41
2023-03-29T01:01:11.577Z,99187.55
2023-03-29T01:03:46.602Z,99195.69
2023-03-29T01:06:16.215Z,99199.80
2023-03-29T01:08:47.852Z,99204.35
2023-03-29T01:11:22.273Z,99209.53
2023-03-29T01:14:04.671Z,99207.30
2023-03-29T01:16:34.253Z,99215.33
2023-03-29T01:19:02.625Z,99219.09
2023-03-29T01:22:02.171Z,99219.87
2023-03-29T01:24:38.026Z,99220.83
2023-03-29T01:27:22.924Z,99226.13
2023-03-29T01:29:54.624Z,99231.70
2023-03-29T01:32:47.996Z,99236.20
2023-03-29T01:35:35.796Z,99238.80
2023-03-29T01:38:16.248Z,99244.91
2023-03-29T01:40:44.456Z,99258.63
2023-03-29T01:43:32.535Z,99256.09
2023-03-29T01:46:14.574Z,99265.37
2023-03-29T01:48:48.282Z,99273.89
2023-03-29T01:51:29.785Z,99274.07
2023-03-29T01:54:07.565Z,99285.13
2023-03-29T01:56:39.200Z,99286.08
2023-03-29T01:59:09.867Z,99292.08
2023-03-29T02:01:40.556Z,99292.61
2023-03-29T02:04:13.325Z,99296.01
2023-03-29T02:06:45.607Z,99299.70
2023-03-29T02:09:13.590Z,99305.60
2023-03-29T02:11:41.881Z,99308.62
2023-03-29T02:14:10.584Z,99318.48
2023-03-29T02:16:39.696Z,99319.89
2023-03-29T02:19:08.042Z,99318.70
2023-03-29T02:21:42.585Z,99319.95
2023-03-29T02:24:11.457Z,99326.97
2023-03-29T02:26:39.866Z,99326.95
2023-03-29T02:29:07.836Z,99332.51
2023-03-29T02:31:39.179Z,99340.58
2023-03-29T02:34:08.012Z,99340.84
2023-03-29T02:36:42.381Z,99346.02
2023-03-29T02:39:10.558Z,99347.91
2023-03-29T02:41:39.141Z,99350.70
2023-03-29T02:44:08.417Z,99356.08
2023-03-29T02:46:38.412Z,99355.86
2023-03-29T02:49:06.757Z,99356.35
2023-03-29T02:51:36.937Z,99356.67
2023-03-29T02:54:08.324Z,99356.27
2023-03-29T02:56:48.388Z,99353.25
2023-03-29T02:59:19.511Z,99355.81
2023-03-29T03:01:47.597Z,99354.44
2023-03-29T03:04:15.823Z,99356.59
2023-03-29T03:06:47.119Z,99357.80
2023-03-29T03:09:15.750Z,99361.55
2023-03-29T03:11:47.120Z,99361.64
2023-03-29T03:14:16.795Z,99368.48
2023-03-29T03:16:45.010Z,99367.27
2023-03-29T03:19:14.194Z,99373.40
2023-03-29T03:21:43.259Z,99374.69
2023-03-29T03:24:11.131Z,99376.48
2023-03-29T03:26:39.449Z,99380.38
2023-03-29T03:29:08.093Z,99380.09
2023-03-29T03:32:14.682Z,99386.90
2023-03-29T03:34:48.483Z,99387.63
2023-03-29T03:37:16.794Z,99389.08
2023-03-29T03:39:46.921Z,99389.60
2023-03-29T03:42:15.103Z,99388.55
2023-03-29T03:44:46.808Z,99387.70
2023-03-29T03:47:44.626Z,99388.34
2023-03-29T03:50:24.373Z,99391.98
2023-03-29T03:52:52.713Z,99395.73
2023-03-29T03:55:26.001Z,99400.14
2023-03-29T03:58:17.252Z,99402.75
2023-03-29T04:00:47.872Z,99401.74
2023-03-29T04:03:37.986Z,99404.68
2023-03-29T04:06:06.725Z,99406.32
2023-03-29T04:09:02.487Z,99409.52
2023-03-29T04:11:40.917Z,99416.66
2023-03-29T04:14:10.446Z,99410.51
2023-03-29T04:16:57.054Z,99418.74
2023-03-29T04:19:44.524Z,99420.40
2023-03-29T04:22:16.681Z,99426.02
2023-03-29T04:24:45.760Z,99429.91
2023-03-29T04:27:31.651Z,99438.63
2023-03-29T04:30:04.445Z,99441.25
2023-03-29T04:32:51.427Z,99448.65
2023-03-29T04:35:20.324Z,99450.99
2023-03-29T04:37:51.364Z,99455.10
2023-03-29T04:40:22.462Z,99457.45
2023-03-29T04:43:01.046Z,99460.34
2023-03-29T04:45:29.161Z,99461.80
2023-03-29T04:48:13.756Z,99463.63
2023-03-29T04:50:47.504Z,99467.27
2023-03-29T04:53:16.453Z,99464.25
2023-03-29T04:55:47.129Z,99467.29
2023-03-29T04:58:22.174Z,99464.44
2023-03-29T05:00:58.280Z,99466.70
2023-03-29T05:03:32.466Z,99471.25
2023-03-29T05:06:08.777Z,99469.96
2023-03-29T05:08:39.312Z,99470.49
2023-03-29T05:11:31.661Z,99476.31
2023-03-29T05:14:03.263Z,99482.01
2023-03-29T05:16:34.631Z,99479.56
2023-03-29T05:19:02.742Z,99481.84
2023-03-29T05:21:33.505Z,99484.77
2023-03-29T05:24:03.169Z,99484.38
2023-03-29T05:26:51.832Z,99488.39
2023-03-29T05:29:19.729Z,99490.52
2023-03-29T05:31:53.088Z,99495.18
2023-03-29T05:34:21.302Z,99491.36
2023-03-29T05:36:52.580Z,99495.98
2023-03-29T05:39:21.260Z,99497.77
2023-03-29T05:41:50.166Z,99496.40
2023-03-29T05:44:27.058Z,99499.71
2023-03-29T05:46:59.872Z,99507.36
2023-03-29T05:49:27.885Z,99511.17
2023-03-29T05:52:21.063Z,99517.05
2023-03-29T05:54:49.156Z,99515.36
2023-03-29T05:57:17.415Z,99521.36
2023-03-29T05:59:47.030Z,99526.77
2023-03-29T06:02:16.047Z,99529.13
2023-03-29T06:04:48.401Z,99535.06
2023-03-29T06:07:26.956Z,99539.20
2023-03-29T06:10:14.202Z,99537.23
2023-03-29T06:12:45.211Z,99541.95
2023-03-29T06:15:16.621Z,99548.95
2023-03-29T06:17:48.118Z,99554.01
2023-03-29T06:20:17.213Z,99559.66
2023-03-29T06:22:48.552Z,99562.27
2023-03-29T06:25:19.752Z,99567.89
2023-03-29T06:27:49.649Z,99566.81
2023-03-29T06:30:19.732Z,99569.43
2023-03-29T06:33:07.058Z,99574.05
2023-03-29T06:35:52.272Z,99573.23
2023-03-29T06:38:26.748Z,99576.79
2023-03-29T06:41:06.616Z,99581.32
2023-03-29T06:43:50.619Z,99576.27
2023-03-29T06:46:19.756Z,99582.50
2023-03-29T06:48:58.235Z,99583.52
2023-03-29T06:51:34.046Z,99583.01
2023-03-29T06:54:02.256Z,99592.48
2023-03-29T06:56:32.229Z,99593.86
2023-03-29T06:59:04.822Z,99603.71
2023-03-29T07:01:37.553Z,99604.77
2023-03-29T07:04:23.504Z,99611.65
2023-03-29T07:07:22.132Z,99618.82
2023-03-29T07:09:55.399Z,99623.27
2023-03-29T07:12:54.382Z,99621.63
2023-03-29T07:15:22.553Z,99624.82
2023-03-29T07:18:23.828Z,99624.25
2023-03-29T07:20:52.526Z,99628.21
2023-03-29T07:23:20.509Z,99637.91
2023-03-29T07:25:50.661Z,99642.71
2023-03-29T07:28:18.733Z,99655.23
2023-03-29T07:30:49.715Z,99660.30
2023-03-29T07:33:20.823Z,99662.61
2023-03-29T07:36:02.051Z,99668.85
2023-03-29T07:38:45.259Z,99668.42
2023-03-29T07:41:18.078Z,99672.70
2023-03-29T07:43:48.415Z,99671.12
2023-03-29T07:46:19.791Z,99671.54
2023-03-29T07:48:51.337Z,99672.32
2023-03-29T07:51:19.206Z,99679.70
2023-03-29T08:17:31.867Z,99704.95
2023-03-29T08:20:00.109Z,99710.16
2023-03-29T08:22:28.467Z,99714.20
2023-03-29T08:25:19.968Z,99716.52
2023-03-29T08:27:50.705Z,99721.21
2023-03-29T08:30:27.863Z,99719.88
2023-03-29T08:32:58.325Z,99726.10
2023-03-29T08:35:26.612Z,99723.70
2023-03-29T08:38:10.638Z,99732.18
2023-03-29T08:40:39.356Z,99735.05
2023-03-29T08:43:26.059Z,99734.96
2023-03-29T08:46:34.736Z,99738.73
2023-03-29T08:49:12.634Z,99739.81
2023-03-29T08:51:42.868Z,99740.05
2023-03-29T08:54:19.599Z,99743.61
2023-03-29T08:57:28.036Z,99743.13
2023-03-29T09:00:05.535Z,99739.83
2023-03-29T09:02:35.342Z,99742.75
2023-03-29T09:05:34.493Z,99752.48
2023-03-29T09:08:31.801Z,99757.70
2023-03-29T09:11:19.590Z,99757.13
2023-03-29T09:14:04.258Z,99757.52
2023-03-29T09:16:53.271Z,99758.27
2023-03-29T09:19:43.915Z,99764.23
2023-03-29T09:22:19.748Z,99758.27
2023-03-29T09:24:59.928Z,99765.46
2023-03-29T09:27:39.828Z,99764.94
2023-03-29T09:30:41.648Z,99774.92
2023-03-29T09:33:25.558Z,99775.20
2023-03-29T09:36:10.258Z,99776.96
2023-03-29T09:38:47.145Z,99780.92
2023-03-29T09:41:24.907Z,99783.57
2023-03-29T09:43:53.041Z,99792.44
2023-03-29T09:46:57.974Z,99801.19
2023-03-29T09:49:36.058Z,99801.70
2023-03-29T09:52:06.749Z,99806.41
2023-03-29T09:54:48.790Z,99809.23
2023-03-29T09:57:39.283Z,99808.89
2023-03-29T10:00:10.665Z,99815.00
2023-03-29T10:02:42.169Z,99820.83
2023-03-29T10:05:15.724Z,99828.92
2023-03-29T10:07:51.459Z,99826.88
2023-03-29T10:10:34.048Z,99832.59
2023-03-29T10:13:05.543Z,99834.73
2023-03-29T10:15:39.838Z,99842.89
2023-03-29T10:18:12.754Z,99840.76
2023-03-29T10:20:41.147Z,99840.73
2023-03-29T10:23:10.346Z,99845.17
2023-03-29T10:25:42.451Z,99846.52
2023-03-29T10:28:16.516Z,99846.05
2023-03-29T10:30:45.960Z,99847.31
2023-03-29T10:33:19.812Z,99855.24
2023-03-29T10:35:47.638Z,99847.70
2023-03-29T10:38:18.276Z,99857.90
2023-03-29T10:40:48.177Z,99854.52
2023-03-29T10:43:24.623Z,99856.30
2023-03-29T10:46:06.820Z,99856.59
2023-03-29T10:48:36.010Z,99857.92
2023-03-29T10:51:05.689Z,99856.80
2023-03-29T10:53:35.935Z,99856.70
2023-03-29T10:56:03.753Z,99859.30
2023-03-29T10:59:02.322Z,99860.73
2023-03-29T11:01:35.143Z,99862.42
2023-03-29T11:04:16.033Z,99864.81
2023-03-29T13:22:10.112Z,99956.38
2023-03-29T13:24:56.580Z,99961.30
2023-03-29T13:27:36.274Z,99954.67
2023-03-29T13:30:13.580Z,99961.63
2023-03-29T13:33:11.337Z,99964.27
2023-03-29T13:35:59.061Z,99973.83
2023-03-29T13:38:28.699Z,99982.26
2023-03-29T13:41:23.114Z,99985.55
2023-03-29T13:43:54.394Z,99992.46
2023-03-29T13:46:37.200Z,99996.56
2023-03-29T13:49:20.659Z,100005.75
2023-03-29T13:52:09.474Z,100008.16
2023-03-29T13:54:43.067Z,100014.52
2023-03-29T13:57:23.275Z,100024.98
2023-03-29T14:00:12.287Z,100029.23
2023-03-29T14:02:48.737Z,100031.83
2023-03-29T14:05:19.776Z,100040.94
2023-03-29T14:07:50.440Z,100043.62
2023-03-29T14:10:33.158Z,100047.54
2023-03-29T14:13:04.034Z,100050.41
2023-03-29T14:15:48.682Z,100055.05
2023-03-29T14:18:19.192Z,100058.72
2023-03-29T14:20:49.224Z,100059.77
2023-03-29T14:23:24.856Z,100061.36
2023-03-29T14:25:52.899Z,100059.61
2023-03-29T14:28:24.799Z,100064.54
2023-03-29T14:30:53.733Z,100065.98
2023-03-29T14:33:29.576Z,100073.13
2023-03-29T14:35:58.840Z,100074.55
2023-03-29T14:38:27.899Z,100075.27
2023-03-29T14:40:59.073Z,100080.08
2023-03-29T14:43:30.459Z,100079.90
2023-03-29T14:45:58.837Z,100082.70
2023-03-29T14:48:28.012Z,100083.54
2023-03-29T14:50:56.199Z,100084.23
2023-03-29T14:53:24.702Z,100087.52
2023-03-29T14:55:53.096Z,100090.98
2023-03-29T14:58:24.814Z,100096.02
2023-03-29T15:00:52.816Z,100096.48
2023-03-29T15:03:26.410Z,100093.56
2023-03-29T15:05:58.613Z,100093.93
2023-03-29T15:08:38.377Z,100102.66
2023-03-29T15:11:19.045Z,100106.52
2023-03-29T15:13:47.532Z,100108.84
2023-03-29T15:16:19.286Z,100110.96
2023-03-29T15:18:50.029Z,100113.27
2023-03-29T15:21:20.619Z,100119.39
2023-03-29T15:23:52.461Z,100121.52
2023-03-29T15:26:26.932Z,100126.39
2023-03-29T15:29:12.520Z,100126.39
2023-03-29T15:31:41.885Z,100130.11
2023-03-29T15:34:12.651Z,100131.08
2023-03-29T15:36:45.271Z,100133.97
2023-03-29T15:39:17.206Z,100135.92
2023-03-29T15:41:46.380Z,100141.02
2023-03-29T15:44:19.838Z,100149.06
2023-03-29T15:46:48.013Z,100157.41
2023-03-29T15:49:16.322Z,100161.18
2023-03-29T15:51:44.192Z,100163.92
2023-03-29T15:54:12.134Z,100169.52
2023-03-29T15:56:53.620Z,100175.12
2023-03-29T15:59:22.004Z,100173.36
2023-03-29T16:01:50.256Z,100174.98
2023-03-29T16:04:21.982Z,100175.96
2023-03-29T16:06:52.884Z,100179.71
2023-03-29T16:09:21.658Z,100182.64
2023-03-29T16:11:52.626Z,100179.33
2023-03-29T16:14:27.399Z,100181.67
2023-03-29T16:16:55.734Z,100185.27
2023-03-29T16:19:25.290Z,100182.86
2023-03-29T16:21:53.674Z,100184.59
2023-03-29T16:24:24.736Z,100182.36
2023-03-29T16:26:55.404Z,100183.74
2023-03-29T16:29:24.920Z,100186.26
2023-03-29T16:31:53.413Z,100188.77
2023-03-29T16:34:23.104Z,100189.48
2023-03-29T16:36:52.973Z,100187.94
2023-03-29T16:39:27.134Z,100194.06
2023-03-29T16:41:55.469Z,100200.84
2023-03-29T16:44:25.778Z,100205.87
2023-03-29T16:46:59.781Z,100211.62
2023-03-29T16:49:28.504Z,100220.69
2023-03-29T16:52:01.042Z,100225.44
2023-03-29T16:54:32.712Z,100228.02
2023-03-29T16:57:00.729Z,100226.96
2023-03-29T16:59:28.700Z,100230.16
2023-03-29T17:01:56.947Z,100233.17
2023-03-29T17:04:25.451Z,100239.36
2023-03-29T17:06:53.671Z,100241.79
2023-03-29T17:09:21.870Z,100242.46
2023-03-29T17:11:49.827Z,100244.92
2023-03-29T17:14:17.690Z,100249.14
2023-03-29T17:16:46.449Z,100253.27
2023-03-29T17:19:14.463Z,100255.80
2023-03-29T17:21:42.536Z,100255.06
2023-03-29T17:24:15.351Z,100256.48
2023-03-29T17:26:45.721Z,100253.08
2023-03-29T17:29:13.989Z,100259.07
2023-03-29T17:31:47.954Z,100260.92
2023-03-29T17:34:17.740Z,100264.60
2023-03-29T17:36:45.987Z,100269.61
2023-03-29T17:39:15.519Z,100268.10
2023-03-29T17:41:43.650Z,100265.93
2023-03-29T17:44:13.476Z,100271.77
2023-03-29T17:46:42.278Z,100279.91
2023-03-29T17:49:16.986Z,100285.61
2023-03-29T17:51:46.447Z,100290.04
2023-03-29T17:54:14.466Z,100285.14
2023-03-29T17:56:42.389Z,100285.55
2023-03-29T17:59:10.616Z,100289.66
2023-03-29T18:01:39.511Z,100296.11
2023-03-29T18:04:08.019Z,100303.05
2023-03-29T18:06:36.399Z,100306.47
2023-03-29T18:09:13.136Z,100311.75
2023-03-29T18:11:42.631Z,100315.41
2023-03-29T18:14:10.606Z,100316.48
2023-03-29T18:16:42.004Z,100318.20
2023-03-29T18:19:13.596Z,100320.70
2023-03-29T18:21:41.600Z,100324.03
2023-03-29T18:24:09.756Z,100317.70
2023-03-29T18:26:37.641Z,100318.39
2023-03-29T18:29:11.148Z,100318.85
2023-03-29T18:31:41.155Z,100321.90
2023-03-29T18:34:09.128Z,100331.33
2023-03-29T18:36:38.045Z,100330.58
2023-03-29T18:39:07.504Z,100331.08
2023-03-29T18:41:37.402Z,100328.88
2023-03-29T18:44:07.845Z,100333.20
2023-03-29T18:46:37.602Z,100336.23
2023-03-29T18:49:07.634Z,100339.70
2023-03-29T18:51:36.541Z,100337.95
2023-03-29T18:54:06.479Z,100337.60
2023-03-29T18:56:35.546Z,100338.35
2023-03-29T18:59:06.485Z,100337.87
2023-03-29T19:01:35.453Z,100343.34
2023-03-29T19:04:03.370Z,100344.03
2023-03-29T19:06:32.340Z,100347.05
2023-03-29T19:09:02.298Z,100350.45
2023-03-29T19:11:30.602Z,100348.48
2023-03-29T19:13:58.530Z,100347.75
2023-03-29T19:16:27.645Z,100344.80
2023-03-29T19:18:55.870Z,100345.17
2023-03-29T19:21:29.029Z,100345.52
2023-03-29T19:23:57.186Z,100342.59
2023-03-29T19:26:25.259Z,100341.98
2023-03-29T19:28:55.203Z,100340.81
2023-03-29T19:31:24.389Z,100346.13
2023-03-29T19:33:52.923Z,100347.65
2023-03-29T19:36:22.200Z,100349.17
2023-03-29T19:38:50.352Z,100347.05
2023-03-29T19:41:18.879Z,100346.80
2023-03-29T19:43:46.869Z,100348.25
2023-03-29T19:46:15.840Z,100347.80
2023-03-29T19:48:44.020Z,100343.55
2023-03-29T19:51:12.267Z,100342.84
2023-03-29T19:53:41.853Z,100347.34
2023-03-29T19:56:13.295Z,100349.73
2023-03-29T19:58:42.028Z,100350.73
2023-03-29T20:01:10.013Z,100347.54
2023-03-29T20:03:40.448Z,100347.30
2023-03-29T20:06:10.392Z,100347.79
2023-03-29T20:08:39.133Z,100353.88
2023-03-29T20:11:10.438Z,100362.53
2023-03-29T20:13:41.444Z,100360.38
2023-03-29T20:16:11.188Z,100361.36
2023-03-29T20:18:39.698Z,100363.10
2023-03-29T20:21:07.865Z,100365.13
2023-03-29T20:23:36.132Z,100365.68
2023-03-29T20:26:03.961Z,100363.60
2023-03-29T20:28:31.896Z,100366.81
2023-03-29T20:31:04.584Z,100366.89
2023-03-29T20:33:33.421Z,100364.05
2023-03-29T20:36:01.493Z,100370.27
2023-03-29T20:38:30.248Z,100369.99
2023-03-29T20:40:59.078Z,100368.77
2023-03-29T20:43:27.112Z,100369.55
2023-03-29T20:45:55.615Z,100370.36
2023-03-29T20:48:24.866Z,100369.92
2023-03-29T20:50:57.837Z,100373.16
2023-03-29T20:53:34.196Z,100383.11
2023-03-29T20:56:08.973Z,100379.04
2023-03-29T20:58:47.002Z,100380.42
2023-03-29T21:01:14.858Z,100385.02
2023-03-29T21:03:57.728Z,100387.14
2023-03-29T21:06:26.830Z,100389.16
2023-03-29T21:08:54.819Z,100387.15
2023-03-29T21:11:26.775Z,100385.10
2023-03-29T21:13:55.219Z,100387.05
2023-03-29T21:16:25.334Z,100384.52
2023-03-29T21:18:53.634Z,100383.19
2023-03-29T21:21:22.901Z,100388.67
2023-03-29T21:23:50.995Z,100388.80
2023-03-29T21:26:18.874Z,100391.00
2023-03-29T21:28:48.781Z,100393.70
2023-03-29T21:31:16.845Z,100393.66
2023-03-29T21:33:44.916Z,100393.75
2023-03-29T21:36:14.119Z,100391.17
2023-03-29T21:38:43.425Z,100394.20
2023-03-29T21:41:12.327Z,100390.44
2023-03-29T21:43:40.460Z,100394.89
2023-03-29T21:46:08.700Z,100397.19
2023-03-29T21:48:36.730Z,100404.27
2023-03-29T21:51:06.513Z,100407.54
2023-03-29T21:53:34.950Z,100408.66
2023-03-29T21:56:03.230Z,100408.23
2023-03-29T21:58:31.447Z,100412.50
2023-03-29T22:00:59.679Z,100409.92
2023-03-29T22:03:28.848Z,100408.79
2023-03-29T22:06:02.614Z,100411.45
2023-03-29T22:08:31.845Z,100407.02
2023-03-29T22:11:08.466Z,100412.73
2023-03-29T22:13:40.995Z,100412.61
2023-03-29T22:16:10.148Z,100420.55
2023-03-29T22:18:44.252Z,100417.66
2023-03-29T22:21:19.896Z,100419.99
2023-03-29T22:23:49.900Z,100425.48
2023-03-29T22:26:19.402Z,100421.92
2023-03-29T22:28:47.801Z,100423.92
2023-03-29T22:31:17.255Z,100419.53
2023-03-29T22:33:46.202Z,100419.82
2023-03-29T22:36:22.000Z,100422.91
2023-03-29T22:38:51.204Z,100418.82
2023-03-29T22:41:19.957Z,100418.20
2023-03-29T22:43:47.868Z,100417.56
2023-03-29T22:46:16.183Z,100418.64
2023-03-29T22:48:44.504Z,100416.98
2023-03-29T22:51:12.297Z,100417.95
2023-03-29T22:53:40.140Z,100415.88
2023-03-29T22:56:09.301Z,100415.98
2023-03-29T22:58:38.891Z,100418.88
2023-03-29T23:01:07.413Z,100420.71
2023-03-29T23:03:36.860Z,100421.70
2023-03-29T23:06:05.351Z,100424.41
2023-03-29T23:08:33.792Z,100424.52
2023-03-29T23:11:03.828Z,100426.00
2023-03-29T23:13:33.739Z,100424.02
2023-03-29T23:16:03.726Z,100427.75
2023-03-29T23:18:37.735Z,100426.47
2023-03-29T23:21:06.647Z,100429.75
2023-03-29T23:23:34.828Z,100430.11
2023-03-29T23:26:04.078Z,100430.05
2023-03-29T23:28:34.580Z,100430.30
2023-03-29T23:31:09.953Z,100428.86
2023-03-29T23:33:40.500Z,100432.95
2023-03-29T23:36:10.032Z,100433.38
2023-03-29T23:38:38.825Z,100432.10
2023-03-29T23:41:08.650Z,100428.14
2023-03-29T23:43:41.207Z,100431.53
2023-03-29T23:46:11.548Z,100426.84
2023-03-29T23:48:39.804Z,100426.34
2023-03-29T23:51:10.522Z,100426.23
2023-03-29T23:53:38.903Z,100425.63
2023-03-29T23:56:10.834Z,100425.89
2023-03-29T23:58:38.754Z,100427.55
